Monroe, IA (50170)

12:20 AM CDT on September 29, 2016 (GMT -0500)
Rural | | Change Station

Elev 922 ft 41.55 °N, 93.12 °W | Updated 8 seconds ago

Partly Cloudy
Partly Cloudy
55.0 °F
Feels Like 55.0 °F
N
2.9
Wind Variable Wind from NE
Gusts 4.9 mph

Today
High -- | Low -- °F
--% Chance of Precip.
Yesterday
High -- | Low -- °F
Precip. -- in
Pressure 30.27 in
Visibility 10.0 miles
Clouds Few 5000 ft
Dew Point 50 °F
Humidity 83%
Rainfall 0.00 in
Snow Depth Not available.
7:07 AM 6:56 PM
Waning Crescent, 3% visible
METAR KTNU 290515Z AUTO 01009KT 10SM FEW050 12/10 A3027 RMK AO2 PWINO
Pressure 30.27 in
Visibility 10.0 miles
Clouds Few 5000 ft
Dew Point 50 °F
Humidity 83%
Rainfall 0.00 in
Snow Depth Not available.
7:07 AM 6:56 PM
Waning Crescent, 3% visible
METAR KTNU 290515Z AUTO 01009KT 10SM FEW050 12/10 A3027 RMK AO2 PWINO

10-Day Weather Forecast

Almanac

Astronomy

Sep. 29, 2016 Rise Set
Actual Time
Civil Twilight
Nautical Twilight
Astronomical Twilight
Moon
Length of Visible Light
Length of Day
Tomorrow will be .
, % of the Moon is Illuminated

Today's Extremes

State Highs State Lows

Community

WunderPhotos

Upload Photos

1,942,444 photos uploaded!

WunderBlog® & News

Nearby

Air Quality

  Air Quality AQ Index Pollutant
Not available.

Snow Depth

Station Depth Elevation

Earthquake Activity

City Distance Mag. Time & Date
Minimum magnitude displayed is 2.5.

Coastal Water Temperatures

Place Temperature

Stations

Nearby Weather Stations

Station Location Temp. Windchill Dew Point Humidity Wind Precip. Elev Updated Type
                   

Watches & Warnings

There are currently no watches in effect.